sensor_id;sensor_type;location;lat;lon;timestamp;pressure;altitude;pressure_sealevel;temperature;humidity
31585;BME280;18191;51.288;12.390;2022-08-21T00:01:50;49245.56;;;-144.47;100.00
31585;BME280;18191;51.288;12.390;2022-08-21T00:06:40;49275.41;;;-144.47;100.00
31585;BME280;18191;51.288;12.390;2022-08-21T00:11:30;49215.72;;;-144.47;100.00
31585;BME280;18191;51.288;12.390;2022-08-21T00:16:20;49257.50;;;-144.47;100.00
31585;BME280;18191;51.288;12.390;2022-08-21T00:21:14;49241.59;;;-144.47;100.00
31585;BME280;18191;51.288;12.390;2022-08-21T00:26:05;49249.53;;;-144.47;100.00
31585;BME280;18191;51.288;12.390;2022-08-21T00:30:55;49255.50;;;-144.47;100.00
31585;BME280;18191;51.288;12.390;2022-08-21T00:35:46;49221.69;;;-144.47;99.14
31585;BME280;18191;51.288;12.390;2022-08-21T00:40:58;49247.56;;;-144.47;100.00
31585;BME280;18191;51.288;12.390;2022-08-21T00:45:47;49243.56;;;-144.47;100.00
31585;BME280;18191;51.288;12.390;2022-08-21T00:50:39;49263.47;;;-144.47;100.00
31585;BME280;18191;51.288;12.390;2022-08-21T00:55:31;49269.44;;;-144.47;100.00
31585;BME280;18191;51.288;12.390;2022-08-21T01:00:25;49215.72;;;-144.47;100.00
31585;BME280;18191;51.288;12.390;2022-08-21T01:05:17;49239.59;;;-144.47;100.00
31585;BME280;18191;51.288;12.390;2022-08-21T01:10:08;49275.41;;;-144.47;100.00
31585;BME280;18191;51.288;12.390;2022-08-21T01:14:58;49267.44;;;-144.47;100.00
31585;BME280;18191;51.288;12.390;2022-08-21T01:19:48;49231.63;;;-144.47;100.00
31585;BME280;18191;51.288;12.390;2022-08-21T01:24:39;49275.41;;;-144.47;100.00
31585;BME280;18191;51.288;12.390;2022-08-21T01:29:47;49267.44;;;-144.47;99.16
31585;BME280;18191;51.288;12.390;2022-08-21T01:34:40;49241.59;;;-144.47;100.00
31585;BME280;18191;51.288;12.390;2022-08-21T01:39:31;49211.75;;;-144.47;99.26
31585;BME280;18191;51.288;12.390;2022-08-21T01:44:22;49247.56;;;-144.47;96.35
31585;BME280;18191;51.288;12.390;2022-08-21T01:49:13;49279.38;;;-144.47;97.58
31585;BME280;18191;51.288;12.390;2022-08-21T01:54:03;49223.69;;;-144.47;98.70
31585;BME280;18191;51.288;12.390;2022-08-21T01:58:53;49219.72;;;-144.47;99.72
31585;BME280;18191;51.288;12.390;2022-08-21T02:03:43;49267.44;;;-144.47;99.43
31585;BME280;18191;51.288;12.390;2022-08-21T02:08:34;49223.69;;;-144.47;99.48
31585;BME280;18191;51.288;12.390;2022-08-21T02:13:24;49215.72;;;-144.47;100.00
31585;BME280;18191;51.288;12.390;2022-08-21T02:18:14;49245.56;;;-144.47;100.00
31585;BME280;18191;51.288;12.390;2022-08-21T02:23:05;49271.44;;;-144.47;99.80
31585;BME280;18191;51.288;12.390;2022-08-21T02:27:56;49249.53;;;-144.47;100.00
31585;BME280;18191;51.288;12.390;2022-08-21T02:32:46;49253.53;;;-144.47;100.00
31585;BME280;18191;51.288;12.390;2022-08-21T02:37:52;49265.47;;;-144.47;100.00
31585;BME280;18191;51.288;12.390;2022-08-21T02:42:43;49223.69;;;-144.47;99.46
31585;BME280;18191;51.288;12.390;2022-08-21T02:47:33;49229.66;;;-144.47;98.56
31585;BME280;18191;51.288;12.390;2022-08-21T02:52:23;49235.63;;;-144.47;99.22
31585;BME280;18191;51.288;12.390;2022-08-21T02:57:14;49251.53;;;-144.47;98.23
31585;BME280;18191;51.288;12.390;2022-08-21T03:02:04;49247.56;;;-144.47;98.16
31585;BME280;18191;51.288;12.390;2022-08-21T03:06:54;49235.63;;;-144.47;98.54
31585;BME280;18191;51.288;12.390;2022-08-21T03:11:44;49287.34;;;-144.47;98.96
31585;BME280;18191;51.288;12.390;2022-08-21T03:16:35;49229.66;;;-144.47;98.70
31585;BME280;18191;51.288;12.390;2022-08-21T03:21:25;49287.34;;;-144.47;99.39
31585;BME280;18191;51.288;12.390;2022-08-21T03:26:15;49255.50;;;-144.47;98.53
31585;BME280;18191;51.288;12.390;2022-08-21T03:31:05;49291.31;;;-144.47;99.57
31585;BME280;18191;51.288;12.390;2022-08-21T03:36:04;49239.59;;;-144.47;99.18
31585;BME280;18191;51.288;12.390;2022-08-21T03:40:55;49207.78;;;-144.47;99.93
31585;BME280;18191;51.288;12.390;2022-08-21T03:45:45;49243.56;;;-144.47;98.60
31585;BME280;18191;51.288;12.390;2022-08-21T03:50:36;49267.44;;;-144.47;99.43
31585;BME280;18191;51.288;12.390;2022-08-21T03:55:27;49229.66;;;-144.47;98.30
31585;BME280;18191;51.288;12.390;2022-08-21T04:00:18;49247.56;;;-144.47;99.86
31585;BME280;18191;51.288;12.390;2022-08-21T04:05:09;49241.59;;;-144.47;100.00
31585;BME280;18191;51.288;12.390;2022-08-21T04:09:59;49271.44;;;-144.47;99.76
31585;BME280;18191;51.288;12.390;2022-08-21T04:14:50;49239.59;;;-144.47;99.43
31585;BME280;18191;51.288;12.390;2022-08-21T04:19:43;49263.47;;;-144.47;99.48
31585;BME280;18191;51.288;12.390;2022-08-21T04:24:33;49259.50;;;-144.47;99.52
31585;BME280;18191;51.288;12.390;2022-08-21T04:29:24;49255.50;;;-144.47;99.62
31585;BME280;18191;51.288;12.390;2022-08-21T04:34:14;49271.44;;;-144.47;99.86
31585;BME280;18191;51.288;12.390;2022-08-21T04:39:04;49251.53;;;-144.47;99.40
31585;BME280;18191;51.288;12.390;2022-08-21T04:43:55;49247.56;;;-144.47;99.02
31585;BME280;18191;51.288;12.390;2022-08-21T04:48:45;49249.53;;;-144.47;98.78
31585;BME280;18191;51.288;12.390;2022-08-21T04:53:55;49263.47;;;-144.47;98.14
31585;BME280;18191;51.288;12.390;2022-08-21T04:58:47;49251.53;;;-144.47;95.89
31585;BME280;18191;51.288;12.390;2022-08-21T05:03:39;49247.56;;;-144.47;95.69
31585;BME280;18191;51.288;12.390;2022-08-21T05:08:31;49247.56;;;-144.47;94.60
31585;BME280;18191;51.288;12.390;2022-08-21T05:13:21;49241.59;;;-144.47;95.88
31585;BME280;18191;51.288;12.390;2022-08-21T05:18:12;49231.63;;;-144.47;95.54
31585;BME280;18191;51.288;12.390;2022-08-21T05:23:09;49221.69;;;-144.47;93.40
31585;BME280;18191;51.288;12.390;2022-08-21T05:27:59;49261.47;;;-144.47;93.87
31585;BME280;18191;51.288;12.390;2022-08-21T05:32:49;49253.53;;;-144.47;92.24
31585;BME280;18191;51.288;12.390;2022-08-21T05:37:39;49291.31;;;-144.47;91.31
31585;BME280;18191;51.288;12.390;2022-08-21T05:42:29;49207.78;;;-144.47;91.05
31585;BME280;18191;51.288;12.390;2022-08-21T05:47:20;49295.31;;;-144.47;91.07
31585;BME280;18191;51.288;12.390;2022-08-21T05:52:10;49267.44;;;-144.47;88.85
31585;BME280;18191;51.288;12.390;2022-08-21T05:57:00;49235.63;;;-144.47;87.65
31585;BME280;18191;51.288;12.390;2022-08-21T06:01:51;49215.72;;;-144.47;85.98
31585;BME280;18191;51.288;12.390;2022-08-21T06:06:42;49221.69;;;-144.47;85.52
31585;BME280;18191;51.288;12.390;2022-08-21T06:11:32;49235.63;;;-144.47;82.01
31585;BME280;18191;51.288;12.390;2022-08-21T06:16:23;49247.56;;;-144.47;83.90
31585;BME280;18191;51.288;12.390;2022-08-21T06:21:13;49235.63;;;-144.47;82.83
31585;BME280;18191;51.288;12.390;2022-08-21T06:26:04;49207.78;;;-144.47;81.40
31585;BME280;18191;51.288;12.390;2022-08-21T06:30:55;49211.75;;;-144.47;80.37
31585;BME280;18191;51.288;12.390;2022-08-21T06:35:45;49195.84;;;-144.47;79.01
31585;BME280;18191;51.288;12.390;2022-08-21T06:40:35;49213.75;;;-144.47;79.31
31585;BME280;18191;51.288;12.390;2022-08-21T06:45:26;49267.44;;;-144.47;77.70
31585;BME280;18191;51.288;12.390;2022-08-21T06:50:16;49253.53;;;-144.47;79.53
31585;BME280;18191;51.288;12.390;2022-08-21T06:55:07;49209.75;;;-144.47;78.68
31585;BME280;18191;51.288;12.390;2022-08-21T06:59:58;49215.72;;;-144.47;77.63
31585;BME280;18191;51.288;12.390;2022-08-21T07:04:48;49205.78;;;-144.47;77.90
31585;BME280;18191;51.288;12.390;2022-08-21T07:09:38;49227.66;;;-144.47;76.96
31585;BME280;18191;51.288;12.390;2022-08-21T07:14:29;49197.81;;;-144.47;75.42
31585;BME280;18191;51.288;12.390;2022-08-21T07:19:19;49203.78;;;-144.47;72.50
31585;BME280;18191;51.288;12.390;2022-08-21T07:24:12;49215.72;;;-144.47;67.67
31585;BME280;18191;51.288;12.390;2022-08-21T07:29:03;49235.63;;;-144.47;67.98
31585;BME280;18191;51.288;12.390;2022-08-21T07:33:53;49207.78;;;-144.47;65.91
31585;BME280;18191;51.288;12.390;2022-08-21T07:38:44;49177.94;;;-144.47;70.24
31585;BME280;18191;51.288;12.390;2022-08-21T07:43:36;49207.78;;;-144.47;68.13
31585;BME280;18191;51.288;12.390;2022-08-21T07:48:27;49189.88;;;-144.47;68.80
31585;BME280;18191;51.288;12.390;2022-08-21T07:53:17;49185.88;;;-144.47;68.55
31585;BME280;18191;51.288;12.390;2022-08-21T07:58:07;49187.88;;;-144.47;67.65
31585;BME280;18191;51.288;12.390;2022-08-21T08:02:58;49227.66;;;-144.47;68.36
31585;BME280;18191;51.288;12.390;2022-08-21T08:07:48;49189.88;;;-144.47;65.48
31585;BME280;18191;51.288;12.390;2022-08-21T08:12:39;49195.84;;;-144.47;66.09
31585;BME280;18191;51.288;12.390;2022-08-21T08:17:30;49167.97;;;-144.47;64.16
31585;BME280;18191;51.288;12.390;2022-08-21T08:22:22;49195.84;;;-144.47;64.42
31585;BME280;18191;51.288;12.390;2022-08-21T08:27:14;49144.09;;;-144.47;62.45
31585;BME280;18191;51.288;12.390;2022-08-21T08:32:04;49225.66;;;-144.47;62.21
31585;BME280;18191;51.288;12.390;2022-08-21T08:36:57;49199.81;;;-144.47;64.71
31585;BME280;18191;51.288;12.390;2022-08-21T08:41:48;49187.88;;;-144.47;62.61
31585;BME280;18191;51.288;12.390;2022-08-21T08:46:43;49185.88;;;-144.47;63.51
31585;BME280;18191;51.288;12.390;2022-08-21T08:51:42;49187.88;;;-144.47;63.82
31585;BME280;18191;51.288;12.390;2022-08-21T08:56:35;49193.84;;;-144.47;61.87
31585;BME280;18191;51.288;12.390;2022-08-21T09:01:25;49181.91;;;-144.47;61.89
31585;BME280;18191;51.288;12.390;2022-08-21T09:06:34;49150.06;;;-144.47;55.70
31585;BME280;18191;51.288;12.390;2022-08-21T09:11:31;49160.03;;;-144.47;56.16
31585;BME280;18191;51.288;12.390;2022-08-21T09:21:37;49128.19;;;-144.47;50.69
31585;BME280;18191;51.288;12.390;2022-08-21T09:26:36;49158.03;;;-144.47;51.11
31585;BME280;18191;51.288;12.390;2022-08-21T09:31:33;49148.09;;;-144.47;46.49
31585;BME280;18191;51.288;12.390;2022-08-21T09:36:31;49144.09;;;-144.47;44.81
31585;BME280;18191;51.288;12.390;2022-08-21T09:41:30;49148.09;;;-144.47;44.42
31585;BME280;18191;51.288;12.390;2022-08-21T09:46:22;49092.38;;;-144.47;44.21
31585;BME280;18191;51.288;12.390;2022-08-21T09:51:14;49154.06;;;-144.47;41.58
31585;BME280;18191;51.288;12.390;2022-08-21T09:56:14;49118.25;;;-144.47;43.24
31585;BME280;18191;51.288;12.390;2022-08-21T10:01:24;49148.09;;;-144.47;38.08
31585;BME280;18191;51.288;12.390;2022-08-21T10:06:27;49132.16;;;-144.47;37.49
31585;BME280;18191;51.288;12.390;2022-08-21T10:11:17;49084.44;;;-144.47;37.89
31585;BME280;18191;51.288;12.390;2022-08-21T10:21:23;49136.16;;;-144.47;38.33
31585;BME280;18191;51.288;12.390;2022-08-21T10:31:21;49112.28;;;-144.47;37.33
31585;BME280;18191;51.288;12.390;2022-08-21T10:36:18;49088.41;;;-144.47;36.42
31585;BME280;18191;51.288;12.390;2022-08-21T10:41:14;49092.38;;;-144.47;36.34
31585;BME280;18191;51.288;12.390;2022-08-21T10:46:23;49084.44;;;-144.47;36.33
31585;BME280;18191;51.288;12.390;2022-08-21T10:51:20;49086.41;;;-144.47;36.77
31585;BME280;18191;51.288;12.390;2022-08-21T10:56:18;49136.16;;;-144.47;35.65
31585;BME280;18191;51.288;12.390;2022-08-21T11:01:17;49096.38;;;-144.47;36.73
31585;BME280;18191;51.288;12.390;2022-08-21T11:06:09;49152.06;;;-144.47;36.90
31585;BME280;18191;51.288;12.390;2022-08-21T11:11:05;49090.41;;;-144.47;35.41
31585;BME280;18191;51.288;12.390;2022-08-21T11:25:55;49120.25;;;-144.47;34.85
31585;BME280;18191;51.288;12.390;2022-08-21T11:30:52;49104.31;;;-144.47;34.44
31585;BME280;18191;51.288;12.390;2022-08-21T11:35:54;49100.34;;;-144.47;34.99
31585;BME280;18191;51.288;12.390;2022-08-21T11:51:12;49086.41;;;-144.47;34.72
31585;BME280;18191;51.288;12.390;2022-08-21T12:00:56;49096.38;;;-144.47;31.80
31585;BME280;18191;51.288;12.390;2022-08-21T12:05:55;49116.25;;;-144.47;33.28
31585;BME280;18191;51.288;12.390;2022-08-21T12:10:47;49112.28;;;-144.47;34.96
31585;BME280;18191;51.288;12.390;2022-08-21T12:15:48;49092.38;;;-144.47;34.52
31585;BME280;18191;51.288;12.390;2022-08-21T12:20:43;49076.47;;;-144.47;34.33
31585;BME280;18191;51.288;12.390;2022-08-21T12:30:46;49066.53;;;-144.47;35.44
31585;BME280;18191;51.288;12.390;2022-08-21T12:35:39;49080.44;;;-144.47;33.91
31585;BME280;18191;51.288;12.390;2022-08-21T12:40:40;49132.16;;;-144.47;33.77
31585;BME280;18191;51.288;12.390;2022-08-21T12:45:33;49092.38;;;-144.47;34.67
31585;BME280;18191;51.288;12.390;2022-08-21T12:50:26;49060.56;;;-144.47;32.88
31585;BME280;18191;51.288;12.390;2022-08-21T12:55:25;49092.38;;;-144.47;33.69
31585;BME280;18191;51.288;12.390;2022-08-21T13:00:20;49090.41;;;-144.47;32.49
31585;BME280;18191;51.288;12.390;2022-08-21T13:05:12;49058.56;;;-144.47;31.13
31585;BME280;18191;51.288;12.390;2022-08-21T13:10:24;49062.56;;;-144.47;31.92
31585;BME280;18191;51.288;12.390;2022-08-21T13:15:14;49058.56;;;-144.47;31.43
31585;BME280;18191;51.288;12.390;2022-08-21T13:20:19;49074.47;;;-144.47;32.92
31585;BME280;18191;51.288;12.390;2022-08-21T13:25:11;49076.47;;;-144.47;33.13
31585;BME280;18191;51.288;12.390;2022-08-21T13:34:54;49056.59;;;-144.47;34.12
31585;BME280;18191;51.288;12.390;2022-08-21T13:39:48;49078.47;;;-144.47;33.95
31585;BME280;18191;51.288;12.390;2022-08-21T13:44:44;49064.53;;;-144.47;35.70
31585;BME280;18191;51.288;12.390;2022-08-21T13:49:36;49068.50;;;-144.47;35.64
31585;BME280;18191;51.288;12.390;2022-08-21T13:54:29;49086.41;;;-144.47;34.68
31585;BME280;18191;51.288;12.390;2022-08-21T13:59:24;49070.50;;;-144.47;33.71
31585;BME280;18191;51.288;12.390;2022-08-21T14:09:13;49080.44;;;-144.47;34.01
31585;BME280;18191;51.288;12.390;2022-08-21T14:14:28;49080.44;;;-144.47;33.47
31585;BME280;18191;51.288;12.390;2022-08-21T14:19:27;49032.72;;;-144.47;32.51
31585;BME280;18191;51.288;12.390;2022-08-21T14:29:13;49056.59;;;-144.47;33.87
31585;BME280;18191;51.288;12.390;2022-08-21T14:34:05;49072.50;;;-144.47;34.89
31585;BME280;18191;51.288;12.390;2022-08-21T14:38:55;49060.56;;;-144.47;32.01
31585;BME280;18191;51.288;12.390;2022-08-21T14:43:45;49060.56;;;-144.47;32.45
31585;BME280;18191;51.288;12.390;2022-08-21T14:48:36;49044.66;;;-144.47;34.26
31585;BME280;18191;51.288;12.390;2022-08-21T14:53:26;49064.53;;;-144.47;32.78
31585;BME280;18191;51.288;12.390;2022-08-21T14:58:16;49050.63;;;-144.47;32.33
31585;BME280;18191;51.288;12.390;2022-08-21T15:03:07;49080.44;;;-144.47;33.90
31585;BME280;18191;51.288;12.390;2022-08-21T15:07:57;49080.44;;;-144.47;32.72
31585;BME280;18191;51.288;12.390;2022-08-21T15:12:47;49076.47;;;-144.47;34.14
31585;BME280;18191;51.288;12.390;2022-08-21T15:17:37;49030.72;;;-144.47;32.54
31585;BME280;18191;51.288;12.390;2022-08-21T15:22:27;49036.69;;;-144.47;33.12
31585;BME280;18191;51.288;12.390;2022-08-21T15:27:18;49020.78;;;-144.47;33.60
31585;BME280;18191;51.288;12.390;2022-08-21T15:32:16;49084.44;;;-144.47;33.88
31585;BME280;18191;51.288;12.390;2022-08-21T15:37:06;49012.81;;;-144.47;33.08
31585;BME280;18191;51.288;12.390;2022-08-21T15:41:58;49062.56;;;-144.47;33.52
31585;BME280;18191;51.288;12.390;2022-08-21T15:46:48;49032.72;;;-144.47;33.80
31585;BME280;18191;51.288;12.390;2022-08-21T15:51:39;49030.72;;;-144.47;32.43
31585;BME280;18191;51.288;12.390;2022-08-21T15:56:33;49062.56;;;-144.47;33.94
31585;BME280;18191;51.288;12.390;2022-08-21T16:01:24;49036.69;;;-144.47;34.36
31585;BME280;18191;51.288;12.390;2022-08-21T16:06:14;49024.75;;;-144.47;34.01
31585;BME280;18191;51.288;12.390;2022-08-21T16:11:05;49040.66;;;-144.47;32.56
31585;BME280;18191;51.288;12.390;2022-08-21T16:15:55;49044.66;;;-144.47;34.44
31585;BME280;18191;51.288;12.390;2022-08-21T16:20:45;49012.81;;;-144.47;32.88
31585;BME280;18191;51.288;12.390;2022-08-21T16:25:38;49040.66;;;-144.47;33.25
31585;BME280;18191;51.288;12.390;2022-08-21T16:30:29;49060.56;;;-144.47;32.59
31585;BME280;18191;51.288;12.390;2022-08-21T16:35:20;49024.75;;;-144.47;34.74
31585;BME280;18191;51.288;12.390;2022-08-21T16:40:11;49066.53;;;-144.47;35.15
31585;BME280;18191;51.288;12.390;2022-08-21T16:45:01;49032.72;;;-144.47;35.07
31585;BME280;18191;51.288;12.390;2022-08-21T16:49:53;49044.66;;;-144.47;36.40
31585;BME280;18191;51.288;12.390;2022-08-21T16:54:43;49002.88;;;-144.47;36.06
31585;BME280;18191;51.288;12.390;2022-08-21T16:59:34;49050.63;;;-144.47;37.68
31585;BME280;18191;51.288;12.390;2022-08-21T17:04:24;49028.72;;;-144.47;35.41
31585;BME280;18191;51.288;12.390;2022-08-21T17:09:16;49026.75;;;-144.47;36.08
31585;BME280;18191;51.288;12.390;2022-08-21T17:14:17;49048.63;;;-144.47;37.08
31585;BME280;18191;51.288;12.390;2022-08-21T17:19:09;49048.63;;;-144.47;36.49
31585;BME280;18191;51.288;12.390;2022-08-21T17:23:59;49028.72;;;-144.47;37.84
31585;BME280;18191;51.288;12.390;2022-08-21T17:28:49;49048.63;;;-144.47;37.66
31585;BME280;18191;51.288;12.390;2022-08-21T17:33:41;49014.81;;;-144.47;39.42
31585;BME280;18191;51.288;12.390;2022-08-21T17:38:34;49052.59;;;-144.47;41.89
31585;BME280;18191;51.288;12.390;2022-08-21T17:43:26;49044.66;;;-144.47;44.96
31585;BME280;18191;51.288;12.390;2022-08-21T17:48:16;49040.66;;;-144.47;47.86
31585;BME280;18191;51.288;12.390;2022-08-21T17:53:06;49064.53;;;-144.47;51.41
31585;BME280;18191;51.288;12.390;2022-08-21T17:57:58;49072.50;;;-144.47;52.65
31585;BME280;18191;51.288;12.390;2022-08-21T18:02:59;49124.22;;;-144.47;54.26
31585;BME280;18191;51.288;12.390;2022-08-21T18:07:50;49084.44;;;-144.47;55.25
31585;BME280;18191;51.288;12.390;2022-08-21T18:12:41;49048.63;;;-144.47;56.07
31585;BME280;18191;51.288;12.390;2022-08-21T18:17:32;49066.53;;;-144.47;58.21
31585;BME280;18191;51.288;12.390;2022-08-21T18:22:24;49080.44;;;-144.47;59.46
31585;BME280;18191;51.288;12.390;2022-08-21T18:27:14;49064.53;;;-144.47;59.38
31585;BME280;18191;51.288;12.390;2022-08-21T18:32:05;49072.50;;;-144.47;59.08
31585;BME280;18191;51.288;12.390;2022-08-21T18:36:56;49088.41;;;-144.47;58.03
31585;BME280;18191;51.288;12.390;2022-08-21T18:41:46;49060.56;;;-144.47;56.04
31585;BME280;18191;51.288;12.390;2022-08-21T18:46:37;49048.63;;;-144.47;58.59
31585;BME280;18191;51.288;12.390;2022-08-21T18:51:27;49056.59;;;-144.47;58.99
31585;BME280;18191;51.288;12.390;2022-08-21T18:56:17;49080.44;;;-144.47;61.51
31585;BME280;18191;51.288;12.390;2022-08-21T19:01:08;49048.63;;;-144.47;64.86
31585;BME280;18191;51.288;12.390;2022-08-21T19:05:58;49052.59;;;-144.47;64.80
31585;BME280;18191;51.288;12.390;2022-08-21T19:10:49;49082.44;;;-144.47;63.55
31585;BME280;18191;51.288;12.390;2022-08-21T19:15:40;49088.41;;;-144.47;66.04
31585;BME280;18191;51.288;12.390;2022-08-21T19:20:32;49052.59;;;-144.47;66.18
31585;BME280;18191;51.288;12.390;2022-08-21T19:25:25;49054.59;;;-144.47;66.20
31585;BME280;18191;51.288;12.390;2022-08-21T19:30:16;49072.50;;;-144.47;67.74
31585;BME280;18191;51.288;12.390;2022-08-21T19:35:06;49066.53;;;-144.47;67.68
31585;BME280;18191;51.288;12.390;2022-08-21T19:39:57;49062.56;;;-144.47;67.41
31585;BME280;18191;51.288;12.390;2022-08-21T19:44:47;49080.44;;;-144.47;68.29
31585;BME280;18191;51.288;12.390;2022-08-21T19:49:37;49076.47;;;-144.47;69.02
31585;BME280;18191;51.288;12.390;2022-08-21T19:54:32;49088.41;;;-144.47;68.74
31585;BME280;18191;51.288;12.390;2022-08-21T19:59:23;49090.41;;;-144.47;69.30
31585;BME280;18191;51.288;12.390;2022-08-21T20:04:14;49052.59;;;-144.47;69.47
31585;BME280;18191;51.288;12.390;2022-08-21T20:09:05;49070.50;;;-144.47;70.23
31585;BME280;18191;51.288;12.390;2022-08-21T20:13:55;49074.47;;;-144.47;70.39
31585;BME280;18191;51.288;12.390;2022-08-21T20:18:46;49036.69;;;-144.47;70.88
31585;BME280;18191;51.288;12.390;2022-08-21T20:23:38;49066.53;;;-144.47;72.49
31585;BME280;18191;51.288;12.390;2022-08-21T20:28:28;49092.38;;;-144.47;71.65
31585;BME280;18191;51.288;12.390;2022-08-21T20:33:18;49068.50;;;-144.47;72.39
31585;BME280;18191;51.288;12.390;2022-08-21T20:38:08;49080.44;;;-144.47;72.07
31585;BME280;18191;51.288;12.390;2022-08-21T20:42:58;49084.44;;;-144.47;72.55
31585;BME280;18191;51.288;12.390;2022-08-21T20:47:50;49052.59;;;-144.47;72.56
31585;BME280;18191;51.288;12.390;2022-08-21T20:52:43;49054.59;;;-144.47;73.00
31585;BME280;18191;51.288;12.390;2022-08-21T20:57:45;49078.47;;;-144.47;73.65
31585;BME280;18191;51.288;12.390;2022-08-21T21:07:34;49056.59;;;-144.47;74.48
31585;BME280;18191;51.288;12.390;2022-08-21T21:12:34;49082.44;;;-144.47;75.22
31585;BME280;18191;51.288;12.390;2022-08-21T21:17:29;49052.59;;;-144.47;74.97
31585;BME280;18191;51.288;12.390;2022-08-21T21:22:29;49066.53;;;-144.47;76.06
31585;BME280;18191;51.288;12.390;2022-08-21T21:27:22;49058.56;;;-144.47;76.16
31585;BME280;18191;51.288;12.390;2022-08-21T21:32:16;49064.53;;;-144.47;77.53
31585;BME280;18191;51.288;12.390;2022-08-21T21:37:07;49024.75;;;-144.47;75.37
31585;BME280;18191;51.288;12.390;2022-08-21T21:46:53;49080.44;;;-144.47;77.00
31585;BME280;18191;51.288;12.390;2022-08-21T22:01:27;49082.44;;;-144.47;77.52
31585;BME280;18191;51.288;12.390;2022-08-21T22:06:38;49044.66;;;-144.47;77.21
31585;BME280;18191;51.288;12.390;2022-08-21T22:11:53;49060.56;;;-144.47;77.24
31585;BME280;18191;51.288;12.390;2022-08-21T22:16:45;49042.66;;;-144.47;78.57
31585;BME280;18191;51.288;12.390;2022-08-21T22:21:36;49062.56;;;-144.47;77.96
31585;BME280;18191;51.288;12.390;2022-08-21T22:26:33;49044.66;;;-144.47;78.11
31585;BME280;18191;51.288;12.390;2022-08-21T22:31:25;49084.44;;;-144.47;78.04
31585;BME280;18191;51.288;12.390;2022-08-21T22:36:18;49080.44;;;-144.47;77.85
31585;BME280;18191;51.288;12.390;2022-08-21T22:41:19;49036.69;;;-144.47;79.21
31585;BME280;18191;51.288;12.390;2022-08-21T22:46:11;49048.63;;;-144.47;79.13
31585;BME280;18191;51.288;12.390;2022-08-21T22:51:09;49052.59;;;-144.47;79.19
31585;BME280;18191;51.288;12.390;2022-08-21T22:56:03;49078.47;;;-144.47;79.30
31585;BME280;18191;51.288;12.390;2022-08-21T23:01:05;49048.63;;;-144.47;79.04
31585;BME280;18191;51.288;12.390;2022-08-21T23:06:00;49036.69;;;-144.47;79.50
31585;BME280;18191;51.288;12.390;2022-08-21T23:11:02;49094.38;;;-144.47;79.13
31585;BME280;18191;51.288;12.390;2022-08-21T23:16:01;49068.50;;;-144.47;80.13
31585;BME280;18191;51.288;12.390;2022-08-21T23:20:57;49060.56;;;-144.47;79.88
31585;BME280;18191;51.288;12.390;2022-08-21T23:36:22;49080.44;;;-144.47;80.48
31585;BME280;18191;51.288;12.390;2022-08-21T23:46:35;49056.59;;;-144.47;83.03
31585;BME280;18191;51.288;12.390;2022-08-21T23:51:55;49092.38;;;-144.47;82.76
31585;BME280;18191;51.288;12.390;2022-08-21T23:56:46;49040.66;;;-144.47;83.23
